Weather at Kanabec Hospital Heliport

Public forecast

Using degrees Fahrenheit for public forecast. Weather courtesy of forecast.io.

Closest aviation weather report (METAR) to Kanabec Hospital Heliport

Closest report is Mora Municipal Airport, 1.0 nm (1.9 km) NE.

2024/07/25 10:35 (retrieved 6 minutes ago)

KJMR 251035Z AUTO 00000KT 4SM BR CLR 10/10 A3029 RMK AO2

Closest aviation forecast (TAF) to Kanabec Hospital Heliport

Closest forecast is Saint Cloud Regional Airport, 37.8 nm (70.0 km) WSW.

2024/07/25 06:22 (retrieved 4 hours ago)

TAF KSTC 250520Z 2506/2606 11003KT P6SM FEW200 FM251400 15008KT P6SM SKC FM260000 14005KT P6SM SKC